sensor_id;sensor_type;location;lat;lon;timestamp;P1;durP1;ratioP1;P2;durP2;ratioP2
77085;SDS011;66014;53.134;18.006;2023-07-13T00:00:41;11.30;;;7.80;;
77085;SDS011;66014;53.134;18.006;2023-07-13T00:03:28;11.20;;;8.00;;
77085;SDS011;66014;53.134;18.006;2023-07-13T00:06:00;12.60;;;8.30;;
77085;SDS011;66014;53.134;18.006;2023-07-13T00:10:57;11.50;;;7.80;;
77085;SDS011;66014;53.134;18.006;2023-07-13T00:13:24;10.70;;;7.30;;
77085;SDS011;66014;53.134;18.006;2023-07-13T00:15:49;14.00;;;7.90;;
77085;SDS011;66014;53.134;18.006;2023-07-13T00:18:16;10.80;;;7.60;;
77085;SDS011;66014;53.134;18.006;2023-07-13T00:20:42;11.70;;;7.50;;
77085;SDS011;66014;53.134;18.006;2023-07-13T00:23:08;11.40;;;7.10;;
77085;SDS011;66014;53.134;18.006;2023-07-13T00:25:34;11.20;;;8.30;;
77085;SDS011;66014;53.134;18.006;2023-07-13T00:28:01;10.90;;;8.00;;
77085;SDS011;66014;53.134;18.006;2023-07-13T00:30:27;11.80;;;7.50;;
77085;SDS011;66014;53.134;18.006;2023-07-13T00:32:54;10.70;;;8.10;;
77085;SDS011;66014;53.134;18.006;2023-07-13T00:35:19;10.10;;;8.00;;
77085;SDS011;66014;53.134;18.006;2023-07-13T00:37:45;13.40;;;8.70;;
77085;SDS011;66014;53.134;18.006;2023-07-13T00:40:12;12.80;;;8.30;;
77085;SDS011;66014;53.134;18.006;2023-07-13T00:42:44;12.20;;;8.20;;
77085;SDS011;66014;53.134;18.006;2023-07-13T00:47:39;10.20;;;7.90;;
77085;SDS011;66014;53.134;18.006;2023-07-13T00:50:06;11.50;;;8.10;;
77085;SDS011;66014;53.134;18.006;2023-07-13T00:52:38;12.20;;;7.30;;
77085;SDS011;66014;53.134;18.006;2023-07-13T00:55:07;10.30;;;7.90;;
77085;SDS011;66014;53.134;18.006;2023-07-13T00:57:37;13.70;;;8.10;;
77085;SDS011;66014;53.134;18.006;2023-07-13T01:00:06;12.50;;;8.00;;
77085;SDS011;66014;53.134;18.006;2023-07-13T01:02:38;9.80;;;7.00;;
77085;SDS011;66014;53.134;18.006;2023-07-13T01:05:09;10.70;;;7.40;;
77085;SDS011;66014;53.134;18.006;2023-07-13T01:07:36;13.60;;;8.20;;
77085;SDS011;66014;53.134;18.006;2023-07-13T01:10:03;12.40;;;8.10;;
77085;SDS011;66014;53.134;18.006;2023-07-13T01:12:30;12.60;;;8.20;;
77085;SDS011;66014;53.134;18.006;2023-07-13T01:14:58;10.10;;;7.50;;
77085;SDS011;66014;53.134;18.006;2023-07-13T01:17:28;10.90;;;7.40;;
77085;SDS011;66014;53.134;18.006;2023-07-13T01:19:56;9.80;;;7.00;;
77085;SDS011;66014;53.134;18.006;2023-07-13T01:22:22;11.50;;;7.30;;
77085;SDS011;66014;53.134;18.006;2023-07-13T01:24:53;9.80;;;7.40;;
77085;SDS011;66014;53.134;18.006;2023-07-13T01:27:25;9.10;;;7.30;;
77085;SDS011;66014;53.134;18.006;2023-07-13T01:29:54;10.70;;;6.70;;
77085;SDS011;66014;53.134;18.006;2023-07-13T01:32:27;9.00;;;6.80;;
77085;SDS011;66014;53.134;18.006;2023-07-13T01:34:53;8.90;;;7.00;;
77085;SDS011;66014;53.134;18.006;2023-07-13T01:37:22;9.30;;;7.00;;
77085;SDS011;66014;53.134;18.006;2023-07-13T01:40:04;9.40;;;7.00;;
77085;SDS011;66014;53.134;18.006;2023-07-13T01:42:30;8.50;;;6.20;;
77085;SDS011;66014;53.134;18.006;2023-07-13T01:44:56;9.30;;;7.20;;
77085;SDS011;66014;53.134;18.006;2023-07-13T01:47:23;8.90;;;6.70;;
77085;SDS011;66014;53.134;18.006;2023-07-13T01:49:52;8.80;;;6.50;;
77085;SDS011;66014;53.134;18.006;2023-07-13T01:52:18;8.90;;;6.70;;
77085;SDS011;66014;53.134;18.006;2023-07-13T01:54:44;10.00;;;6.90;;
77085;SDS011;66014;53.134;18.006;2023-07-13T01:57:10;10.40;;;6.60;;
77085;SDS011;66014;53.134;18.006;2023-07-13T01:59:36;9.50;;;6.80;;
77085;SDS011;66014;53.134;18.006;2023-07-13T02:02:02;9.20;;;6.90;;
77085;SDS011;66014;53.134;18.006;2023-07-13T02:04:28;8.10;;;6.40;;
77085;SDS011;66014;53.134;18.006;2023-07-13T02:06:54;8.90;;;6.30;;
77085;SDS011;66014;53.134;18.006;2023-07-13T02:09:21;8.40;;;6.50;;
77085;SDS011;66014;53.134;18.006;2023-07-13T02:11:48;9.20;;;6.50;;
77085;SDS011;66014;53.134;18.006;2023-07-13T02:14:14;10.00;;;6.50;;
77085;SDS011;66014;53.134;18.006;2023-07-13T02:16:41;9.60;;;6.10;;
77085;SDS011;66014;53.134;18.006;2023-07-13T02:19:07;10.00;;;6.20;;
77085;SDS011;66014;53.134;18.006;2023-07-13T02:21:33;10.00;;;7.00;;
77085;SDS011;66014;53.134;18.006;2023-07-13T02:24:00;11.60;;;7.00;;
77085;SDS011;66014;53.134;18.006;2023-07-13T02:26:26;9.00;;;7.00;;
77085;SDS011;66014;53.134;18.006;2023-07-13T02:28:52;12.20;;;6.80;;
77085;SDS011;66014;53.134;18.006;2023-07-13T02:31:18;10.90;;;7.10;;
77085;SDS011;66014;53.134;18.006;2023-07-13T02:33:44;9.10;;;6.50;;
77085;SDS011;66014;53.134;18.006;2023-07-13T02:36:11;10.40;;;6.90;;
77085;SDS011;66014;53.134;18.006;2023-07-13T02:38:37;11.60;;;7.90;;
77085;SDS011;66014;53.134;18.006;2023-07-13T02:41:04;11.20;;;7.50;;
77085;SDS011;66014;53.134;18.006;2023-07-13T02:43:31;9.70;;;6.70;;
77085;SDS011;66014;53.134;18.006;2023-07-13T02:45:58;10.60;;;7.50;;
77085;SDS011;66014;53.134;18.006;2023-07-13T02:48:30;11.40;;;7.90;;
77085;SDS011;66014;53.134;18.006;2023-07-13T02:50:56;10.40;;;7.60;;
77085;SDS011;66014;53.134;18.006;2023-07-13T02:53:22;10.50;;;7.00;;
77085;SDS011;66014;53.134;18.006;2023-07-13T02:55:47;9.60;;;7.20;;
77085;SDS011;66014;53.134;18.006;2023-07-13T02:58:15;10.90;;;8.00;;
77085;SDS011;66014;53.134;18.006;2023-07-13T03:00:44;10.80;;;6.80;;
77085;SDS011;66014;53.134;18.006;2023-07-13T03:03:12;9.40;;;7.40;;
77085;SDS011;66014;53.134;18.006;2023-07-13T03:05:40;10.00;;;7.10;;
77085;SDS011;66014;53.134;18.006;2023-07-13T03:08:11;10.40;;;7.20;;
77085;SDS011;66014;53.134;18.006;2023-07-13T03:10:37;10.40;;;7.70;;
77085;SDS011;66014;53.134;18.006;2023-07-13T03:13:05;11.70;;;7.80;;
77085;SDS011;66014;53.134;18.006;2023-07-13T03:15:31;11.10;;;7.50;;
77085;SDS011;66014;53.134;18.006;2023-07-13T03:17:57;11.30;;;7.90;;
77085;SDS011;66014;53.134;18.006;2023-07-13T03:20:23;10.00;;;7.30;;
77085;SDS011;66014;53.134;18.006;2023-07-13T03:22:49;10.00;;;7.70;;
77085;SDS011;66014;53.134;18.006;2023-07-13T03:25:15;10.90;;;7.90;;
77085;SDS011;66014;53.134;18.006;2023-07-13T03:27:40;12.70;;;7.50;;
77085;SDS011;66014;53.134;18.006;2023-07-13T03:30:07;9.60;;;7.20;;
77085;SDS011;66014;53.134;18.006;2023-07-13T03:32:33;10.30;;;6.60;;
77085;SDS011;66014;53.134;18.006;2023-07-13T03:34:59;9.90;;;6.80;;
77085;SDS011;66014;53.134;18.006;2023-07-13T03:37:27;11.10;;;6.80;;
77085;SDS011;66014;53.134;18.006;2023-07-13T03:39:55;9.90;;;7.20;;
77085;SDS011;66014;53.134;18.006;2023-07-13T03:42:25;13.90;;;7.40;;
77085;SDS011;66014;53.134;18.006;2023-07-13T03:45:12;10.60;;;7.20;;
77085;SDS011;66014;53.134;18.006;2023-07-13T03:47:39;8.40;;;6.90;;
77085;SDS011;66014;53.134;18.006;2023-07-13T03:50:07;11.90;;;6.60;;
77085;SDS011;66014;53.134;18.006;2023-07-13T03:52:34;9.10;;;6.10;;
77085;SDS011;66014;53.134;18.006;2023-07-13T03:55:01;8.40;;;7.00;;
77085;SDS011;66014;53.134;18.006;2023-07-13T03:57:41;10.10;;;7.30;;
77085;SDS011;66014;53.134;18.006;2023-07-13T04:00:11;10.80;;;6.70;;
77085;SDS011;66014;53.134;18.006;2023-07-13T04:02:38;13.60;;;7.10;;
77085;SDS011;66014;53.134;18.006;2023-07-13T04:05:04;10.50;;;6.60;;
77085;SDS011;66014;53.134;18.006;2023-07-13T04:07:30;11.10;;;6.80;;
77085;SDS011;66014;53.134;18.006;2023-07-13T04:09:56;18.50;;;8.00;;
77085;SDS011;66014;53.134;18.006;2023-07-13T04:12:22;14.10;;;7.00;;
77085;SDS011;66014;53.134;18.006;2023-07-13T04:14:48;10.30;;;7.10;;
77085;SDS011;66014;53.134;18.006;2023-07-13T04:17:14;11.00;;;7.20;;
77085;SDS011;66014;53.134;18.006;2023-07-13T04:19:40;10.50;;;7.20;;
77085;SDS011;66014;53.134;18.006;2023-07-13T04:22:06;10.30;;;7.10;;
77085;SDS011;66014;53.134;18.006;2023-07-13T04:24:31;11.10;;;7.90;;
77085;SDS011;66014;53.134;18.006;2023-07-13T04:29:57;9.80;;;7.40;;
77085;SDS011;66014;53.134;18.006;2023-07-13T04:32:22;11.70;;;7.60;;
77085;SDS011;66014;53.134;18.006;2023-07-13T04:35:13;12.80;;;8.10;;
77085;SDS011;66014;53.134;18.006;2023-07-13T04:37:40;11.40;;;7.60;;
77085;SDS011;66014;53.134;18.006;2023-07-13T04:40:06;15.80;;;8.20;;
77085;SDS011;66014;53.134;18.006;2023-07-13T04:42:37;12.50;;;8.00;;
77085;SDS011;66014;53.134;18.006;2023-07-13T04:45:05;10.80;;;7.40;;
77085;SDS011;66014;53.134;18.006;2023-07-13T04:47:38;13.70;;;8.20;;
77085;SDS011;66014;53.134;18.006;2023-07-13T04:53:37;11.60;;;7.60;;
77085;SDS011;66014;53.134;18.006;2023-07-13T04:56:03;12.30;;;6.80;;
77085;SDS011;66014;53.134;18.006;2023-07-13T04:58:33;13.90;;;6.20;;
77085;SDS011;66014;53.134;18.006;2023-07-13T05:01:00;9.20;;;6.00;;
77085;SDS011;66014;53.134;18.006;2023-07-13T05:03:28;12.40;;;6.10;;
77085;SDS011;66014;53.134;18.006;2023-07-13T05:06:02;12.50;;;8.80;;
77085;SDS011;66014;53.134;18.006;2023-07-13T05:08:30;9.80;;;6.80;;
77085;SDS011;66014;53.134;18.006;2023-07-13T05:10:55;9.60;;;6.20;;
77085;SDS011;66014;53.134;18.006;2023-07-13T05:13:22;8.80;;;5.50;;
77085;SDS011;66014;53.134;18.006;2023-07-13T05:15:55;8.30;;;5.40;;
77085;SDS011;66014;53.134;18.006;2023-07-13T05:18:54;11.10;;;6.10;;
77085;SDS011;66014;53.134;18.006;2023-07-13T05:21:20;8.20;;;5.20;;
77085;SDS011;66014;53.134;18.006;2023-07-13T05:23:46;12.90;;;6.40;;
77085;SDS011;66014;53.134;18.006;2023-07-13T05:26:13;9.70;;;4.90;;
77085;SDS011;66014;53.134;18.006;2023-07-13T05:28:39;7.30;;;4.80;;
77085;SDS011;66014;53.134;18.006;2023-07-13T05:31:11;7.80;;;5.20;;
77085;SDS011;66014;53.134;18.006;2023-07-13T05:33:40;11.00;;;5.20;;
77085;SDS011;66014;53.134;18.006;2023-07-13T05:36:09;8.00;;;4.60;;
77085;SDS011;66014;53.134;18.006;2023-07-13T05:38:35;9.00;;;4.10;;
77085;SDS011;66014;53.134;18.006;2023-07-13T05:41:03;7.70;;;4.10;;
77085;SDS011;66014;53.134;18.006;2023-07-13T05:43:50;8.60;;;4.10;;
77085;SDS011;66014;53.134;18.006;2023-07-13T05:46:15;8.00;;;3.30;;
77085;SDS011;66014;53.134;18.006;2023-07-13T05:48:41;10.90;;;3.70;;
77085;SDS011;66014;53.134;18.006;2023-07-13T05:51:11;6.10;;;3.40;;
77085;SDS011;66014;53.134;18.006;2023-07-13T05:53:39;7.70;;;3.40;;
77085;SDS011;66014;53.134;18.006;2023-07-13T05:56:05;9.70;;;3.90;;
77085;SDS011;66014;53.134;18.006;2023-07-13T05:58:31;7.30;;;3.20;;
77085;SDS011;66014;53.134;18.006;2023-07-13T06:01:01;6.00;;;3.00;;
77085;SDS011;66014;53.134;18.006;2023-07-13T06:03:29;6.50;;;3.00;;
77085;SDS011;66014;53.134;18.006;2023-07-13T06:05:56;7.10;;;3.30;;
77085;SDS011;66014;53.134;18.006;2023-07-13T06:08:22;5.90;;;3.10;;
77085;SDS011;66014;53.134;18.006;2023-07-13T06:10:47;6.40;;;2.70;;
77085;SDS011;66014;53.134;18.006;2023-07-13T06:13:13;7.70;;;3.20;;
77085;SDS011;66014;53.134;18.006;2023-07-13T06:15:39;6.20;;;3.10;;
77085;SDS011;66014;53.134;18.006;2023-07-13T06:18:05;6.80;;;2.90;;
77085;SDS011;66014;53.134;18.006;2023-07-13T06:20:33;7.40;;;2.80;;
77085;SDS011;66014;53.134;18.006;2023-07-13T06:23:01;6.70;;;2.30;;
77085;SDS011;66014;53.134;18.006;2023-07-13T06:25:28;5.50;;;2.40;;
77085;SDS011;66014;53.134;18.006;2023-07-13T06:27:53;4.30;;;2.10;;
77085;SDS011;66014;53.134;18.006;2023-07-13T06:30:19;6.50;;;2.40;;
77085;SDS011;66014;53.134;18.006;2023-07-13T06:32:45;7.10;;;2.50;;
77085;SDS011;66014;53.134;18.006;2023-07-13T06:35:11;5.50;;;2.00;;
77085;SDS011;66014;53.134;18.006;2023-07-13T06:37:40;6.70;;;2.30;;
77085;SDS011;66014;53.134;18.006;2023-07-13T06:40:06;7.20;;;2.10;;
77085;SDS011;66014;53.134;18.006;2023-07-13T06:42:34;6.40;;;2.50;;
77085;SDS011;66014;53.134;18.006;2023-07-13T06:45:00;6.90;;;3.20;;
77085;SDS011;66014;53.134;18.006;2023-07-13T06:47:26;6.50;;;2.10;;
77085;SDS011;66014;53.134;18.006;2023-07-13T06:49:52;4.80;;;2.30;;
77085;SDS011;66014;53.134;18.006;2023-07-13T06:52:18;4.20;;;1.90;;
77085;SDS011;66014;53.134;18.006;2023-07-13T06:54:44;6.40;;;2.20;;
77085;SDS011;66014;53.134;18.006;2023-07-13T06:57:10;4.20;;;2.00;;
77085;SDS011;66014;53.134;18.006;2023-07-13T06:59:35;4.60;;;2.10;;
77085;SDS011;66014;53.134;18.006;2023-07-13T07:02:01;6.30;;;2.20;;
77085;SDS011;66014;53.134;18.006;2023-07-13T07:04:27;5.20;;;2.00;;
77085;SDS011;66014;53.134;18.006;2023-07-13T07:06:53;6.40;;;2.40;;
77085;SDS011;66014;53.134;18.006;2023-07-13T07:09:19;6.00;;;1.80;;
77085;SDS011;66014;53.134;18.006;2023-07-13T07:11:45;6.40;;;2.30;;
77085;SDS011;66014;53.134;18.006;2023-07-13T07:14:11;5.30;;;2.10;;
77085;SDS011;66014;53.134;18.006;2023-07-13T07:16:37;7.40;;;4.50;;
77085;SDS011;66014;53.134;18.006;2023-07-13T07:19:03;3.40;;;2.20;;
77085;SDS011;66014;53.134;18.006;2023-07-13T07:21:29;3.90;;;2.10;;
77085;SDS011;66014;53.134;18.006;2023-07-13T07:23:55;5.20;;;2.20;;
77085;SDS011;66014;53.134;18.006;2023-07-13T07:26:20;8.60;;;2.20;;
77085;SDS011;66014;53.134;18.006;2023-07-13T07:28:46;4.40;;;2.00;;
77085;SDS011;66014;53.134;18.006;2023-07-13T07:31:12;4.50;;;2.00;;
77085;SDS011;66014;53.134;18.006;2023-07-13T07:33:38;5.20;;;2.00;;
77085;SDS011;66014;53.134;18.006;2023-07-13T07:36:04;4.60;;;1.70;;
77085;SDS011;66014;53.134;18.006;2023-07-13T07:38:30;5.70;;;2.00;;
77085;SDS011;66014;53.134;18.006;2023-07-13T07:40:56;6.00;;;1.80;;
77085;SDS011;66014;53.134;18.006;2023-07-13T07:43:22;5.40;;;2.00;;
77085;SDS011;66014;53.134;18.006;2023-07-13T07:45:48;6.10;;;2.00;;
77085;SDS011;66014;53.134;18.006;2023-07-13T07:48:14;7.10;;;1.70;;
77085;SDS011;66014;53.134;18.006;2023-07-13T07:50:40;4.00;;;1.80;;
77085;SDS011;66014;53.134;18.006;2023-07-13T07:53:06;6.40;;;1.60;;
77085;SDS011;66014;53.134;18.006;2023-07-13T07:55:33;4.70;;;1.70;;
77085;SDS011;66014;53.134;18.006;2023-07-13T07:58:00;5.80;;;1.80;;
77085;SDS011;66014;53.134;18.006;2023-07-13T08:00:27;5.40;;;1.60;;
77085;SDS011;66014;53.134;18.006;2023-07-13T08:02:56;6.70;;;2.10;;
77085;SDS011;66014;53.134;18.006;2023-07-13T08:05:21;6.60;;;1.60;;
77085;SDS011;66014;53.134;18.006;2023-07-13T08:07:47;3.70;;;1.40;;
77085;SDS011;66014;53.134;18.006;2023-07-13T08:10:13;5.70;;;1.70;;
77085;SDS011;66014;53.134;18.006;2023-07-13T08:12:39;6.60;;;1.90;;
77085;SDS011;66014;53.134;18.006;2023-07-13T08:15:06;4.90;;;1.60;;
77085;SDS011;66014;53.134;18.006;2023-07-13T08:17:38;6.40;;;2.20;;
77085;SDS011;66014;53.134;18.006;2023-07-13T08:20:04;5.30;;;1.80;;
77085;SDS011;66014;53.134;18.006;2023-07-13T08:22:31;4.50;;;1.80;;
77085;SDS011;66014;53.134;18.006;2023-07-13T08:24:58;3.90;;;1.50;;
77085;SDS011;66014;53.134;18.006;2023-07-13T08:27:26;5.20;;;1.70;;
77085;SDS011;66014;53.134;18.006;2023-07-13T08:29:53;3.60;;;1.20;;
77085;SDS011;66014;53.134;18.006;2023-07-13T08:32:22;3.60;;;1.30;;
77085;SDS011;66014;53.134;18.006;2023-07-13T08:34:49;3.70;;;1.30;;
77085;SDS011;66014;53.134;18.006;2023-07-13T08:37:15;8.30;;;1.80;;
77085;SDS011;66014;53.134;18.006;2023-07-13T08:39:42;2.60;;;1.30;;
77085;SDS011;66014;53.134;18.006;2023-07-13T08:42:18;3.50;;;1.20;;
77085;SDS011;66014;53.134;18.006;2023-07-13T08:47:37;5.10;;;1.40;;
77085;SDS011;66014;53.134;18.006;2023-07-13T08:50:10;2.50;;;1.20;;
77085;SDS011;66014;53.134;18.006;2023-07-13T08:52:39;4.10;;;1.40;;
77085;SDS011;66014;53.134;18.006;2023-07-13T08:55:13;3.50;;;1.20;;
77085;SDS011;66014;53.134;18.006;2023-07-13T08:57:44;3.80;;;1.30;;
77085;SDS011;66014;53.134;18.006;2023-07-13T09:00:14;4.20;;;1.50;;
77085;SDS011;66014;53.134;18.006;2023-07-13T09:06:23;3.50;;;1.30;;
77085;SDS011;66014;53.134;18.006;2023-07-13T09:09:10;3.90;;;1.10;;
77085;SDS011;66014;53.134;18.006;2023-07-13T09:12:26;6.90;;;1.30;;
77085;SDS011;66014;53.134;18.006;2023-07-13T09:15:45;4.10;;;1.30;;
77085;SDS011;66014;53.134;18.006;2023-07-13T09:21:05;4.10;;;1.20;;
77085;SDS011;66014;53.134;18.006;2023-07-13T09:23:36;3.90;;;1.20;;
77085;SDS011;66014;53.134;18.006;2023-07-13T09:26:06;2.40;;;1.10;;
77085;SDS011;66014;53.134;18.006;2023-07-13T09:31:15;3.50;;;2.00;;
77085;SDS011;66014;53.134;18.006;2023-07-13T09:33:49;4.40;;;1.70;;
77085;SDS011;66014;53.134;18.006;2023-07-13T09:36:29;3.20;;;1.30;;
77085;SDS011;66014;53.134;18.006;2023-07-13T09:41:31;5.90;;;1.50;;
77085;SDS011;66014;53.134;18.006;2023-07-13T09:44:14;4.70;;;1.40;;
77085;SDS011;66014;53.134;18.006;2023-07-13T09:47:01;4.30;;;1.00;;
77085;SDS011;66014;53.134;18.006;2023-07-13T09:49:29;3.10;;;1.10;;
77085;SDS011;66014;53.134;18.006;2023-07-13T09:52:15;3.30;;;1.10;;
77085;SDS011;66014;53.134;18.006;2023-07-13T09:54:48;4.10;;;1.30;;
77085;SDS011;66014;53.134;18.006;2023-07-13T09:57:18;2.70;;;1.00;;
77085;SDS011;66014;53.134;18.006;2023-07-13T09:59:49;3.60;;;1.40;;
77085;SDS011;66014;53.134;18.006;2023-07-13T10:02:33;3.40;;;1.40;;
77085;SDS011;66014;53.134;18.006;2023-07-13T10:05:03;5.10;;;1.90;;
77085;SDS011;66014;53.134;18.006;2023-07-13T10:07:32;5.00;;;1.20;;
77085;SDS011;66014;53.134;18.006;2023-07-13T10:10:12;2.90;;;1.20;;
77085;SDS011;66014;53.134;18.006;2023-07-13T10:12:49;3.70;;;1.20;;
77085;SDS011;66014;53.134;18.006;2023-07-13T10:15:22;4.20;;;1.40;;
77085;SDS011;66014;53.134;18.006;2023-07-13T10:17:51;4.60;;;1.10;;
77085;SDS011;66014;53.134;18.006;2023-07-13T10:20:20;3.70;;;1.10;;
77085;SDS011;66014;53.134;18.006;2023-07-13T10:25:32;7.40;;;1.40;;
77085;SDS011;66014;53.134;18.006;2023-07-13T10:28:27;3.20;;;1.30;;
77085;SDS011;66014;53.134;18.006;2023-07-13T10:30:56;5.70;;;1.50;;
77085;SDS011;66014;53.134;18.006;2023-07-13T10:33:26;3.70;;;1.20;;
77085;SDS011;66014;53.134;18.006;2023-07-13T10:36:05;2.10;;;1.20;;
77085;SDS011;66014;53.134;18.006;2023-07-13T10:38:41;3.30;;;1.20;;
77085;SDS011;66014;53.134;18.006;2023-07-13T10:41:10;4.60;;;1.40;;
77085;SDS011;66014;53.134;18.006;2023-07-13T10:43:42;3.90;;;1.20;;
77085;SDS011;66014;53.134;18.006;2023-07-13T10:46:11;3.60;;;1.20;;
77085;SDS011;66014;53.134;18.006;2023-07-13T10:48:41;3.00;;;1.20;;
77085;SDS011;66014;53.134;18.006;2023-07-13T10:51:10;2.10;;;1.00;;
77085;SDS011;66014;53.134;18.006;2023-07-13T10:53:40;3.70;;;1.40;;
77085;SDS011;66014;53.134;18.006;2023-07-13T10:56:29;4.00;;;1.00;;
77085;SDS011;66014;53.134;18.006;2023-07-13T10:59:40;2.90;;;0.90;;
77085;SDS011;66014;53.134;18.006;2023-07-13T11:04:24;2.80;;;1.10;;
77085;SDS011;66014;53.134;18.006;2023-07-13T11:06:56;4.90;;;1.30;;
77085;SDS011;66014;53.134;18.006;2023-07-13T11:11:56;3.00;;;1.10;;
77085;SDS011;66014;53.134;18.006;2023-07-13T11:14:29;3.10;;;1.10;;
77085;SDS011;66014;53.134;18.006;2023-07-13T11:20:09;3.60;;;1.20;;
77085;SDS011;66014;53.134;18.006;2023-07-13T11:22:48;3.50;;;1.20;;
77085;SDS011;66014;53.134;18.006;2023-07-13T11:25:36;2.30;;;0.90;;
77085;SDS011;66014;53.134;18.006;2023-07-13T11:33:28;4.30;;;1.70;;
77085;SDS011;66014;53.134;18.006;2023-07-13T11:36:18;11.30;;;1.70;;
77085;SDS011;66014;53.134;18.006;2023-07-13T11:38:55;2.40;;;1.10;;
77085;SDS011;66014;53.134;18.006;2023-07-13T11:42:00;3.40;;;1.20;;
77085;SDS011;66014;53.134;18.006;2023-07-13T11:44:23;5.30;;;1.50;;
77085;SDS011;66014;53.134;18.006;2023-07-13T11:46:55;4.00;;;1.10;;
77085;SDS011;66014;53.134;18.006;2023-07-13T11:49:26;3.70;;;1.50;;
77085;SDS011;66014;53.134;18.006;2023-07-13T11:51:55;3.90;;;1.70;;
77085;SDS011;66014;53.134;18.006;2023-07-13T11:56:55;3.60;;;1.30;;
77085;SDS011;66014;53.134;18.006;2023-07-13T11:59:29;4.30;;;1.50;;
77085;SDS011;66014;53.134;18.006;2023-07-13T12:01:59;4.10;;;1.60;;
77085;SDS011;66014;53.134;18.006;2023-07-13T12:04:30;3.10;;;1.50;;
77085;SDS011;66014;53.134;18.006;2023-07-13T12:07:03;3.80;;;1.20;;
77085;SDS011;66014;53.134;18.006;2023-07-13T12:09:34;3.80;;;1.30;;
77085;SDS011;66014;53.134;18.006;2023-07-13T12:12:02;3.90;;;1.30;;
77085;SDS011;66014;53.134;18.006;2023-07-13T12:14:28;2.70;;;1.20;;
77085;SDS011;66014;53.134;18.006;2023-07-13T12:16:54;3.80;;;1.30;;
77085;SDS011;66014;53.134;18.006;2023-07-13T12:19:23;3.10;;;1.50;;
77085;SDS011;66014;53.134;18.006;2023-07-13T12:21:54;5.40;;;1.30;;
77085;SDS011;66014;53.134;18.006;2023-07-13T12:24:22;2.00;;;1.00;;
77085;SDS011;66014;53.134;18.006;2023-07-13T12:26:51;2.30;;;1.10;;
77085;SDS011;66014;53.134;18.006;2023-07-13T12:29:19;4.10;;;1.40;;
77085;SDS011;66014;53.134;18.006;2023-07-13T12:31:45;3.50;;;1.20;;
77085;SDS011;66014;53.134;18.006;2023-07-13T12:34:17;2.50;;;1.20;;
77085;SDS011;66014;53.134;18.006;2023-07-13T12:36:51;2.70;;;1.30;;
77085;SDS011;66014;53.134;18.006;2023-07-13T12:39:20;4.30;;;1.30;;
77085;SDS011;66014;53.134;18.006;2023-07-13T12:44:56;4.40;;;1.40;;
77085;SDS011;66014;53.134;18.006;2023-07-13T12:47:27;5.20;;;1.50;;
77085;SDS011;66014;53.134;18.006;2023-07-13T12:49:56;3.40;;;1.40;;
77085;SDS011;66014;53.134;18.006;2023-07-13T12:52:28;3.00;;;1.20;;
77085;SDS011;66014;53.134;18.006;2023-07-13T12:55:11;3.40;;;1.50;;
77085;SDS011;66014;53.134;18.006;2023-07-13T12:57:41;3.30;;;1.30;;
77085;SDS011;66014;53.134;18.006;2023-07-13T13:00:24;4.50;;;1.30;;
77085;SDS011;66014;53.134;18.006;2023-07-13T13:02:54;3.50;;;1.30;;
77085;SDS011;66014;53.134;18.006;2023-07-13T13:05:22;3.30;;;1.40;;
77085;SDS011;66014;53.134;18.006;2023-07-13T13:07:50;2.80;;;1.10;;
77085;SDS011;66014;53.134;18.006;2023-07-13T13:10:16;3.00;;;1.50;;
77085;SDS011;66014;53.134;18.006;2023-07-13T13:12:42;4.10;;;1.50;;
77085;SDS011;66014;53.134;18.006;2023-07-13T13:15:10;4.20;;;1.60;;
77085;SDS011;66014;53.134;18.006;2023-07-13T13:17:37;4.20;;;1.70;;
77085;SDS011;66014;53.134;18.006;2023-07-13T13:20:17;3.90;;;1.50;;
77085;SDS011;66014;53.134;18.006;2023-07-13T13:22:46;4.20;;;2.10;;
77085;SDS011;66014;53.134;18.006;2023-07-13T13:25:13;3.20;;;1.80;;
77085;SDS011;66014;53.134;18.006;2023-07-13T13:27:40;5.30;;;1.90;;
77085;SDS011;66014;53.134;18.006;2023-07-13T13:30:13;6.30;;;2.10;;
77085;SDS011;66014;53.134;18.006;2023-07-13T13:32:41;3.70;;;1.70;;
77085;SDS011;66014;53.134;18.006;2023-07-13T13:35:13;4.00;;;2.00;;
77085;SDS011;66014;53.134;18.006;2023-07-13T13:37:40;4.60;;;2.00;;
77085;SDS011;66014;53.134;18.006;2023-07-13T13:40:17;6.80;;;1.90;;
77085;SDS011;66014;53.134;18.006;2023-07-13T13:42:45;3.30;;;1.70;;
77085;SDS011;66014;53.134;18.006;2023-07-13T13:45:11;4.50;;;1.90;;
77085;SDS011;66014;53.134;18.006;2023-07-13T13:47:39;6.10;;;2.00;;
77085;SDS011;66014;53.134;18.006;2023-07-13T13:50:39;4.30;;;2.10;;
77085;SDS011;66014;53.134;18.006;2023-07-13T13:52:58;5.00;;;2.10;;
77085;SDS011;66014;53.134;18.006;2023-07-13T13:55:24;3.60;;;2.10;;
77085;SDS011;66014;53.134;18.006;2023-07-13T13:57:50;8.70;;;2.80;;
77085;SDS011;66014;53.134;18.006;2023-07-13T14:00:16;3.80;;;1.80;;
77085;SDS011;66014;53.134;18.006;2023-07-13T14:02:46;3.70;;;1.80;;
77085;SDS011;66014;53.134;18.006;2023-07-13T14:05:15;5.10;;;2.20;;
77085;SDS011;66014;53.134;18.006;2023-07-13T14:07:47;3.90;;;2.20;;
77085;SDS011;66014;53.134;18.006;2023-07-13T14:10:15;4.60;;;2.00;;
77085;SDS011;66014;53.134;18.006;2023-07-13T14:12:43;3.30;;;1.80;;
77085;SDS011;66014;53.134;18.006;2023-07-13T14:17:46;3.70;;;1.80;;
77085;SDS011;66014;53.134;18.006;2023-07-13T14:20:15;4.70;;;2.00;;
77085;SDS011;66014;53.134;18.006;2023-07-13T14:22:42;3.90;;;1.80;;
77085;SDS011;66014;53.134;18.006;2023-07-13T14:25:12;4.50;;;2.20;;
77085;SDS011;66014;53.134;18.006;2023-07-13T14:27:43;3.50;;;1.70;;
77085;SDS011;66014;53.134;18.006;2023-07-13T14:30:18;4.40;;;2.00;;
77085;SDS011;66014;53.134;18.006;2023-07-13T14:32:46;3.20;;;1.30;;
77085;SDS011;66014;53.134;18.006;2023-07-13T14:35:12;3.40;;;1.80;;
77085;SDS011;66014;53.134;18.006;2023-07-13T14:37:41;3.30;;;1.50;;
77085;SDS011;66014;53.134;18.006;2023-07-13T14:43:01;3.20;;;1.90;;
77085;SDS011;66014;53.134;18.006;2023-07-13T14:45:27;4.60;;;1.60;;
77085;SDS011;66014;53.134;18.006;2023-07-13T14:47:55;3.60;;;1.20;;
77085;SDS011;66014;53.134;18.006;2023-07-13T14:50:24;2.60;;;1.20;;
77085;SDS011;66014;53.134;18.006;2023-07-13T14:52:57;3.20;;;1.10;;
77085;SDS011;66014;53.134;18.006;2023-07-13T14:55:23;2.60;;;1.10;;
77085;SDS011;66014;53.134;18.006;2023-07-13T14:57:52;3.80;;;1.20;;
77085;SDS011;66014;53.134;18.006;2023-07-13T15:00:20;2.60;;;1.20;;
77085;SDS011;66014;53.134;18.006;2023-07-13T15:02:52;3.90;;;1.10;;
77085;SDS011;66014;53.134;18.006;2023-07-13T15:05:25;2.30;;;1.10;;
77085;SDS011;66014;53.134;18.006;2023-07-13T15:07:52;2.30;;;1.00;;
77085;SDS011;66014;53.134;18.006;2023-07-13T15:10:20;4.00;;;1.20;;
77085;SDS011;66014;53.134;18.006;2023-07-13T15:12:52;2.10;;;1.10;;
77085;SDS011;66014;53.134;18.006;2023-07-13T15:15:18;3.00;;;1.00;;
77085;SDS011;66014;53.134;18.006;2023-07-13T15:17:46;1.80;;;0.90;;
77085;SDS011;66014;53.134;18.006;2023-07-13T15:22:53;3.20;;;1.10;;
77085;SDS011;66014;53.134;18.006;2023-07-13T15:25:21;2.00;;;0.90;;
77085;SDS011;66014;53.134;18.006;2023-07-13T15:27:50;2.10;;;0.90;;
77085;SDS011;66014;53.134;18.006;2023-07-13T15:30:17;2.10;;;1.00;;
77085;SDS011;66014;53.134;18.006;2023-07-13T15:32:46;3.10;;;1.10;;
77085;SDS011;66014;53.134;18.006;2023-07-13T15:35:13;2.70;;;1.10;;
77085;SDS011;66014;53.134;18.006;2023-07-13T15:37:41;2.50;;;0.90;;
77085;SDS011;66014;53.134;18.006;2023-07-13T15:40:08;3.20;;;0.90;;